Time;durP1;ratioP1;P1;durP2;ratioP2;P2;SDS_P1;SDS_P2;PMS_P1;PMS_P2;Temp;Humidity;BMP_temperature;BMP_pressure;BME280_temperature;BME280_humidity;BME280_pressure;Samples;Min_cycle;Max_cycle;Signal;HPM_P1;HPM_P2
2021/05/12 00:00:32;;;;;;;10.93;7.25;;;14.70;99.90;;;;;;4973199;28;20117;-62
2021/05/12 00:02:59;;;;;;;11.63;7.05;;;14.60;99.90;;;;;;4973492;28;20031;-61
2021/05/12 00:05:26;;;;;;;13.50;8.07;;;14.60;99.90;;;;;;4974012;28;20093;-61
2021/05/12 00:07:52;;;;;;;11.38;6.85;;;14.60;99.90;;;;;;4956408;28;20034;-61
2021/05/12 00:10:21;;;;;;;7.75;6.65;;;14.70;99.90;;;;;;4973350;28;20074;-61
2021/05/12 00:12:48;;;;;;;10.25;7.35;;;14.70;99.90;;;;;;4964300;28;20034;-61
2021/05/12 00:15:16;;;;;;;9.85;6.65;;;14.50;99.90;;;;;;4944546;28;20450;-62
2021/05/12 00:17:45;;;;;;;11.57;6.88;;;14.60;99.90;;;;;;4962901;28;20049;-62
2021/05/12 00:20:13;;;;;;;10.15;7.32;;;14.50;99.90;;;;;;4960225;28;20085;-62
2021/05/12 00:25:07;;;;;;;10.20;6.68;;;14.50;99.90;;;;;;4964488;28;20209;-62
2021/05/12 00:27:33;;;;;;;9.00;6.72;;;14.50;99.90;;;;;;4948060;28;20121;-62
2021/05/12 00:29:59;;;;;;;8.57;7.68;;;14.50;99.90;;;;;;4980162;28;20162;-63
2021/05/12 00:32:25;;;;;;;9.35;7.32;;;14.60;99.90;;;;;;4971593;28;20042;-62
2021/05/12 00:34:51;;;;;;;10.43;7.35;;;14.60;99.90;;;;;;4971624;28;20027;-63
2021/05/12 00:37:17;;;;;;;8.75;6.57;;;14.60;99.90;;;;;;4955261;28;20039;-62
2021/05/12 00:39:43;;;;;;;11.85;7.15;;;14.40;99.90;;;;;;4954512;28;20086;-62
2021/05/12 00:42:08;;;;;;;9.52;6.95;;;14.50;99.90;;;;;;4972626;28;20027;-61
2021/05/12 00:44:34;;;;;;;9.02;7.40;;;14.50;99.90;;;;;;4972520;28;20050;-61
2021/05/12 00:47:06;;;;;;;10.45;7.65;;;14.50;99.90;;;;;;4955373;28;20037;-62
2021/05/12 00:49:33;;;;;;;7.22;6.28;;;14.50;99.90;;;;;;4954850;28;20069;-61
2021/05/12 00:51:59;;;;;;;8.52;6.85;;;14.50;99.90;;;;;;4972581;28;20118;-62
2021/05/12 00:54:25;;;;;;;9.60;7.03;;;14.40;99.90;;;;;;4955171;28;20217;-61
2021/05/12 00:56:50;;;;;;;8.43;5.60;;;14.30;99.90;;;;;;4971835;28;20061;-61
2021/05/12 00:59:17;;;;;;;9.02;6.28;;;14.30;99.90;;;;;;4955226;28;20221;-62
2021/05/12 01:01:42;;;;;;;10.00;5.65;;;14.40;99.90;;;;;;4972095;28;20103;-62
2021/05/12 01:04:08;;;;;;;6.22;5.43;;;14.40;99.90;;;;;;4955110;28;20041;-61
2021/05/12 01:06:38;;;;;;;5.70;5.10;;;14.40;99.90;;;;;;4954409;28;20038;-61
2021/05/12 01:09:06;;;;;;;7.47;5.90;;;14.40;99.90;;;;;;4972678;28;20034;-62
2021/05/12 01:11:32;;;;;;;7.45;5.75;;;14.40;99.90;;;;;;4971635;28;20118;-62
2021/05/12 01:13:59;;;;;;;7.70;4.82;;;14.30;99.90;;;;;;4972352;28;20448;-61
2021/05/12 01:16:25;;;;;;;7.30;5.45;;;14.30;99.90;;;;;;4972429;28;20054;-62
2021/05/12 01:18:51;;;;;;;7.78;5.45;;;14.30;99.90;;;;;;4954180;28;20038;-62
2021/05/12 01:21:17;;;;;;;8.20;5.13;;;14.20;99.90;;;;;;4954963;28;20034;-62
2021/05/12 01:23:49;;;;;;;7.88;5.53;;;14.30;99.90;;;;;;4950389;29;20059;-61
2021/05/12 01:26:20;;;;;;;7.95;5.25;;;14.20;99.90;;;;;;4952933;28;20361;-61
2021/05/12 01:28:49;;;;;;;6.20;5.07;;;14.20;99.90;;;;;;4952423;28;20031;-61
2021/05/12 01:31:30;;;;;;;8.50;4.57;;;14.20;99.90;;;;;;4951154;29;20038;-62
2021/05/12 01:33:56;;;;;;;8.85;5.10;;;14.20;99.90;;;;;;4952921;28;20031;-62
2021/05/12 01:36:21;;;;;;;8.13;4.78;;;14.20;99.90;;;;;;4952633;28;20043;-62
2021/05/12 01:38:49;;;;;;;8.27;4.68;;;14.20;99.90;;;;;;4950339;29;20032;-61
2021/05/12 01:41:16;;;;;;;10.13;5.05;;;14.30;99.90;;;;;;4952336;28;20369;-62
2021/05/12 01:43:42;;;;;;;8.40;4.90;;;14.20;99.90;;;;;;4950579;29;20031;-61
2021/05/12 01:46:09;;;;;;;8.10;5.05;;;14.20;99.90;;;;;;4950750;29;20346;-62
2021/05/12 01:48:35;;;;;;;5.28;4.00;;;14.20;99.90;;;;;;4952019;28;20110;-64
2021/05/12 01:51:02;;;;;;;4.90;4.18;;;14.20;99.90;;;;;;4951280;29;20031;-63
2021/05/12 01:53:29;;;;;;;5.22;4.05;;;14.20;99.90;;;;;;4952821;28;20054;-63
2021/05/12 01:55:54;;;;;;;12.88;4.03;;;14.10;99.90;;;;;;4950389;29;20031;-63
2021/05/12 01:58:21;;;;;;;7.70;3.90;;;14.10;99.90;;;;;;4952136;29;20397;-63
2021/05/12 02:00:49;;;;;;;6.85;3.67;;;14.20;99.90;;;;;;4951644;28;20051;-63
2021/05/12 02:03:17;;;;;;;7.43;3.97;;;14.10;99.90;;;;;;4950934;29;20039;-63
2021/05/12 02:05:43;;;;;;;7.88;2.80;;;14.10;99.90;;;;;;4949861;29;20508;-63
2021/05/12 02:08:12;;;;;;;3.88;2.25;;;14.10;99.90;;;;;;4951531;28;20059;-63
2021/05/12 02:10:41;;;;;;;7.47;2.85;;;14.10;99.90;;;;;;4951772;28;20028;-63
2021/05/12 02:13:07;;;;;;;4.25;2.50;;;14.00;99.90;;;;;;4951713;28;20114;-63
2021/05/12 02:15:33;;;;;;;6.43;2.75;;;13.90;99.90;;;;;;4950328;29;20024;-63
2021/05/12 02:17:58;;;;;;;4.93;2.78;;;14.00;99.90;;;;;;4950772;29;20031;-63
2021/05/12 02:20:30;;;;;;;5.90;2.58;;;14.00;99.90;;;;;;4950488;29;20571;-63
2021/05/12 02:22:56;;;;;;;5.32;2.80;;;13.90;99.90;;;;;;4951622;28;20031;-63
2021/05/12 02:25:22;;;;;;;4.75;2.40;;;13.90;99.90;;;;;;4971140;28;20481;-63
2021/05/12 02:27:48;;;;;;;7.28;2.70;;;13.80;99.90;;;;;;4970729;28;20035;-63
2021/05/12 02:30:14;;;;;;;4.70;2.50;;;13.90;99.90;;;;;;4971157;28;20027;-63
2021/05/12 02:32:41;;;;;;;3.85;2.00;;;13.90;99.90;;;;;;4970540;28;20045;-63
2021/05/12 02:35:08;;;;;;;2.22;1.63;;;13.90;99.90;;;;;;4970917;28;20046;-63
2021/05/12 02:37:34;;;;;;;4.22;1.98;;;13.80;99.90;;;;;;4970390;28;20392;-63
2021/05/12 02:40:00;;;;;;;5.93;1.85;;;13.90;99.90;;;;;;4954009;28;20046;-63
2021/05/12 02:42:26;;;;;;;3.42;1.98;;;13.90;99.90;;;;;;4971390;28;20031;-63
2021/05/12 02:44:52;;;;;;;4.95;2.28;;;13.90;99.90;;;;;;4970521;28;20031;-63
2021/05/12 02:47:18;;;;;;;4.95;1.70;;;13.80;99.90;;;;;;4953983;28;20073;-63
2021/05/12 02:49:43;;;;;;;3.47;1.80;;;13.80;99.90;;;;;;4953136;28;20030;-63
2021/05/12 02:52:09;;;;;;;6.00;1.90;;;13.90;99.90;;;;;;4971567;28;20438;-63
2021/05/12 02:54:35;;;;;;;2.95;1.85;;;13.80;99.90;;;;;;4970677;28;20034;-69
2021/05/12 02:57:02;;;;;;;2.70;1.60;;;13.80;99.90;;;;;;4953635;28;20413;-63
2021/05/12 02:59:28;;;;;;;3.20;1.80;;;13.80;99.90;;;;;;4971343;28;20166;-63
2021/05/12 03:01:54;;;;;;;3.67;2.10;;;13.80;99.90;;;;;;4952867;28;20389;-63
2021/05/12 03:04:20;;;;;;;5.00;2.10;;;13.80;99.90;;;;;;4953426;28;20038;-62
2021/05/12 03:06:45;;;;;;;5.05;1.90;;;13.80;99.90;;;;;;4952941;28;20400;-62
2021/05/12 03:09:11;;;;;;;4.35;1.75;;;13.80;99.90;;;;;;4953694;28;20023;-62
2021/05/12 03:11:37;;;;;;;3.28;1.60;;;13.80;99.90;;;;;;4952749;28;20126;-62
2021/05/12 03:14:05;;;;;;;6.43;2.75;;;13.80;99.90;;;;;;4953511;28;20054;-61
2021/05/12 03:16:30;;;;;;;4.30;1.75;;;13.80;99.90;;;;;;4970543;28;20130;-62
2021/05/12 03:18:56;;;;;;;3.20;1.85;;;13.90;99.90;;;;;;4970991;28;20066;-62
2021/05/12 03:21:23;;;;;;;5.68;1.52;;;13.80;99.90;;;;;;4974338;28;20516;-62
2021/05/12 03:23:49;;;;;;;8.00;1.92;;;13.90;99.90;;;;;;4973546;28;20050;-62
2021/05/12 03:26:16;;;;;;;4.80;1.70;;;13.80;99.90;;;;;;4957049;28;20077;-62
2021/05/12 03:28:43;;;;;;;2.92;1.67;;;13.80;99.90;;;;;;4956238;28;20310;-62
2021/05/12 03:31:13;;;;;;;5.95;2.05;;;13.80;99.90;;;;;;4974592;28;20037;-61
2021/05/12 03:33:40;;;;;;;8.32;2.63;;;13.80;99.90;;;;;;4955967;28;20027;-62
2021/05/12 03:36:06;;;;;;;6.90;2.08;;;13.80;99.90;;;;;;4973892;28;20038;-62
2021/05/12 03:38:33;;;;;;;5.00;1.75;;;13.80;99.90;;;;;;4956268;28;20031;-62
2021/05/12 03:40:59;;;;;;;4.35;1.80;;;13.80;99.90;;;;;;4956103;28;20031;-62
2021/05/12 03:43:25;;;;;;;4.70;1.85;;;13.80;99.90;;;;;;4974009;28;20081;-61
2021/05/12 03:45:50;;;;;;;3.45;1.92;;;13.80;99.90;;;;;;4973654;28;20361;-61
2021/05/12 03:48:16;;;;;;;2.08;1.30;;;13.80;99.90;;;;;;4956437;28;20144;-61
2021/05/12 03:50:42;;;;;;;7.15;2.67;;;13.80;99.90;;;;;;4955652;28;20452;-61
2021/05/12 03:53:09;;;;;;;4.97;2.22;;;13.80;99.90;;;;;;4974185;28;20023;-61
2021/05/12 03:55:35;;;;;;;5.53;2.38;;;13.90;99.90;;;;;;4973439;28;20074;-62
2021/05/12 03:58:01;;;;;;;5.78;2.65;;;13.80;99.90;;;;;;4955632;28;20074;-62
2021/05/12 04:00:27;;;;;;;4.15;2.03;;;13.80;99.90;;;;;;4973328;28;20037;-61
2021/05/12 04:02:53;;;;;;;6.78;2.50;;;13.80;99.90;;;;;;4955662;28;20107;-62
2021/05/12 04:05:19;;;;;;;9.85;3.63;;;13.90;99.90;;;;;;4973223;28;20040;-62
2021/05/12 04:07:44;;;;;;;6.05;2.35;;;13.80;99.90;;;;;;4955557;28;20081;-62
2021/05/12 04:10:11;;;;;;;5.88;3.25;;;13.80;99.90;;;;;;4973438;28;20133;-62
2021/05/12 04:12:38;;;;;;;6.60;2.60;;;13.80;99.90;;;;;;4956116;28;20081;-62
2021/05/12 04:15:06;;;;;;;5.32;2.28;;;13.80;99.90;;;;;;4973447;28;20345;-62
2021/05/12 04:17:32;;;;;;;6.38;2.85;;;13.80;99.90;;;;;;4973120;28;20031;-62
2021/05/12 04:19:57;;;;;;;6.18;2.35;;;13.80;99.90;;;;;;4955293;28;20041;-62
2021/05/12 04:22:23;;;;;;;5.47;2.53;;;13.80;99.90;;;;;;4973314;28;20062;-61
2021/05/12 04:24:50;;;;;;;8.13;4.18;;;13.70;99.90;;;;;;4954849;28;20459;-61
2021/05/12 04:27:17;;;;;;;10.38;3.42;;;13.70;99.90;;;;;;4973412;28;20084;-63
2021/05/12 04:29:43;;;;;;;15.10;4.35;;;13.70;99.90;;;;;;4972734;28;20033;-63
2021/05/12 04:32:09;;;;;;;8.45;3.58;;;13.70;99.90;;;;;;4972859;28;20027;-64
2021/05/12 04:34:35;;;;;;;10.25;4.20;;;13.70;99.90;;;;;;4973157;28;20238;-61
2021/05/12 04:37:01;;;;;;;6.00;3.30;;;13.60;99.90;;;;;;4954848;28;20503;-62
2021/05/12 04:39:27;;;;;;;5.93;4.15;;;13.60;99.90;;;;;;4955672;28;20379;-62
2021/05/12 04:41:53;;;;;;;10.27;4.40;;;13.70;99.90;;;;;;4972368;28;20154;-62
2021/05/12 04:44:18;;;;;;;5.85;4.47;;;13.70;99.90;;;;;;4972743;28;20019;-62
2021/05/12 04:46:45;;;;;;;11.52;5.13;;;13.70;99.90;;;;;;4972434;28;20128;-62
2021/05/12 04:49:11;;;;;;;8.68;5.70;;;13.80;99.90;;;;;;4955149;28;20030;-62
2021/05/12 04:51:37;;;;;;;10.13;5.95;;;13.80;99.90;;;;;;4972663;28;20106;-62
2021/05/12 04:54:05;;;;;;;8.48;6.07;;;13.80;99.90;;;;;;4972022;28;20106;-62
2021/05/12 04:56:31;;;;;;;8.68;5.70;;;13.80;99.90;;;;;;4955267;28;20498;-62
2021/05/12 04:58:57;;;;;;;12.50;6.13;;;13.80;99.90;;;;;;4971608;28;20062;-62
2021/05/12 05:01:23;;;;;;;9.48;6.50;;;13.80;99.90;;;;;;4954847;28;20441;-61
2021/05/12 05:03:49;;;;;;;11.43;6.68;;;13.80;99.90;;;;;;4971652;28;20035;-62
2021/05/12 05:06:15;;;;;;;14.60;7.15;;;13.90;99.90;;;;;;4954463;28;20276;-62
2021/05/12 05:08:40;;;;;;;14.45;6.85;;;13.80;99.90;;;;;;4954870;28;20040;-64
2021/05/12 05:11:06;;;;;;;13.40;7.10;;;13.80;99.90;;;;;;4971773;28;20361;-61
2021/05/12 05:13:32;;;;;;;13.55;7.03;;;13.70;99.90;;;;;;4955033;28;20653;-62
2021/05/12 05:15:58;;;;;;;8.90;6.53;;;13.70;99.90;;;;;;4971337;28;20059;-61
2021/05/12 05:18:23;;;;;;;12.23;6.43;;;13.70;99.90;;;;;;4971825;28;20388;-61
2021/05/12 05:20:49;;;;;;;12.02;8.23;;;13.70;99.90;;;;;;4971307;28;20022;-62
2021/05/12 05:23:15;;;;;;;8.90;6.68;;;13.60;99.90;;;;;;4971905;28;20061;-61
2021/05/12 05:25:40;;;;;;;11.18;7.00;;;13.70;99.90;;;;;;4954758;28;20456;-62
2021/05/12 05:28:06;;;;;;;11.90;7.57;;;13.80;99.90;;;;;;4971825;28;20031;-61
2021/05/12 05:30:32;;;;;;;10.98;7.50;;;13.80;99.90;;;;;;4972019;28;20219;-61
2021/05/12 05:33:02;;;;;;;13.55;7.15;;;13.90;99.90;;;;;;4971445;28;20027;-62
2021/05/12 05:35:27;;;;;;;18.05;9.15;;;13.90;99.90;;;;;;4952835;28;20399;-61
2021/05/12 05:37:53;;;;;;;12.15;7.90;;;13.90;99.90;;;;;;4953512;28;20043;-62
2021/05/12 05:40:19;;;;;;;9.18;6.10;;;14.00;99.90;;;;;;4952425;29;20203;-61
2021/05/12 05:42:45;;;;;;;11.30;7.10;;;14.00;99.90;;;;;;4933857;29;20031;-65
2021/05/12 05:45:11;;;;;;;9.82;6.03;;;14.00;99.90;;;;;;4952022;29;20106;-60
2021/05/12 05:47:36;;;;;;;12.38;6.15;;;14.70;99.90;;;;;;4958937;28;20025;-61
2021/05/12 05:50:04;;;;;;;9.43;6.63;;;14.90;99.90;;;;;;4952946;28;20030;-63
2021/05/12 05:52:30;;;;;;;12.77;6.38;;;14.70;99.90;;;;;;4953114;28;20116;-62
2021/05/12 05:54:56;;;;;;;8.50;3.65;;;14.50;99.90;;;;;;4968859;28;20042;-62
2021/05/12 05:57:22;;;;;;;6.57;4.43;;;14.70;99.90;;;;;;4968752;28;20433;-61
2021/05/12 05:59:48;;;;;;;10.05;6.43;;;14.80;99.90;;;;;;4969261;28;20031;-61
2021/05/12 06:02:13;;;;;;;11.38;5.53;;;14.80;99.90;;;;;;4952591;28;20103;-62
2021/05/12 06:04:39;;;;;;;13.93;6.60;;;14.70;99.90;;;;;;4969873;28;20459;-61
2021/05/12 06:07:05;;;;;;;10.00;6.22;;;14.60;99.90;;;;;;4951879;28;20206;-62
2021/05/12 06:09:30;;;;;;;9.43;6.50;;;14.60;99.90;;;;;;4970026;28;20062;-61
2021/05/12 06:11:56;;;;;;;11.98;6.78;;;14.50;99.90;;;;;;4951863;28;20050;-61
2021/05/12 06:14:23;;;;;;;15.05;6.88;;;14.40;99.90;;;;;;4952333;28;20085;-66
2021/05/12 06:16:49;;;;;;;10.02;7.35;;;14.30;99.90;;;;;;4969439;28;20106;-62
2021/05/12 06:19:15;;;;;;;13.23;7.43;;;14.20;99.90;;;;;;4952176;28;20129;-60
2021/05/12 06:21:41;;;;;;;14.10;7.05;;;14.20;99.90;;;;;;4969649;28;20106;-62
2021/05/12 06:24:07;;;;;;;9.70;6.97;;;14.20;99.90;;;;;;4948256;29;20055;-63
2021/05/12 06:26:35;;;;;;;11.52;7.15;;;14.30;99.90;;;;;;4949252;29;20573;-60
2021/05/12 06:29:00;;;;;;;27.08;8.65;;;14.30;99.90;;;;;;4948705;28;20032;-62
2021/05/12 06:31:26;;;;;;;9.98;6.57;;;14.30;99.90;;;;;;4948789;29;20429;-61
2021/05/12 06:33:54;;;;;;;13.45;6.72;;;14.30;99.90;;;;;;4949650;29;20062;-63
2021/05/12 06:36:19;;;;;;;9.68;6.55;;;14.20;99.90;;;;;;4948795;29;20066;-65
2021/05/12 06:38:47;;;;;;;13.80;6.65;;;14.20;99.90;;;;;;4932029;29;20092;-63
2021/05/12 06:41:12;;;;;;;13.27;6.75;;;14.20;99.90;;;;;;4948900;29;20384;-61
2021/05/12 06:43:38;;;;;;;10.43;5.60;;;14.20;99.90;;;;;;4950674;29;20039;-61
2021/05/12 06:46:04;;;;;;;10.02;5.75;;;14.20;99.90;;;;;;4950146;29;20386;-62
2021/05/12 06:48:29;;;;;;;12.30;5.55;;;14.30;99.90;;;;;;4948713;29;20047;-60
2021/05/12 06:50:55;;;;;;;12.73;7.13;;;14.40;99.90;;;;;;4948224;29;20071;-62
2021/05/12 06:53:26;;;;;;;10.23;5.82;;;14.50;99.90;;;;;;4950028;28;20110;-62
2021/05/12 06:55:52;;;;;;;11.98;5.03;;;14.40;99.90;;;;;;4952377;29;20032;-63
2021/05/12 06:58:17;;;;;;;11.10;6.60;;;14.50;99.90;;;;;;4954149;29;20035;-63
2021/05/12 07:00:44;;;;;;;15.30;5.78;;;14.70;99.90;;;;;;4953930;29;20039;-63
2021/05/12 07:03:10;;;;;;;16.15;6.03;;;14.80;99.90;;;;;;4953482;28;20035;-63
2021/05/12 07:05:35;;;;;;;8.90;4.93;;;14.90;99.90;;;;;;4949322;29;20038;-61
2021/05/12 07:08:01;;;;;;;12.57;5.88;;;15.10;99.90;;;;;;4953625;28;20047;-61
2021/05/12 07:10:26;;;;;;;8.77;4.80;;;15.20;99.90;;;;;;4952348;29;20122;-62
2021/05/12 07:12:54;;;;;;;18.25;5.22;;;15.40;99.90;;;;;;4953555;29;20038;-61
2021/05/12 07:15:20;;;;;;;9.98;5.45;;;15.50;99.90;;;;;;4952342;29;20073;-61
2021/05/12 07:17:48;;;;;;;17.75;6.05;;;15.50;99.90;;;;;;4951574;29;20054;-62
2021/05/12 07:20:13;;;;;;;10.02;5.18;;;15.50;99.90;;;;;;4952584;29;20051;-62
2021/05/12 07:22:39;;;;;;;6.72;4.47;;;15.60;99.90;;;;;;4952110;29;20090;-62
2021/05/12 07:25:06;;;;;;;26.23;5.20;;;15.80;99.90;;;;;;4970707;28;20078;-61
2021/05/12 07:27:31;;;;;;;15.57;5.45;;;15.80;99.90;;;;;;4955510;28;20143;-63
2021/05/12 07:29:57;;;;;;;9.98;4.90;;;15.70;99.90;;;;;;4954460;28;20117;-64
2021/05/12 07:32:23;;;;;;;9.40;4.32;;;15.60;99.90;;;;;;4972260;28;20425;-62
2021/05/12 07:34:51;;;;;;;9.02;5.40;;;15.70;99.90;;;;;;4971952;28;20503;-61
2021/05/12 07:37:18;;;;;;;9.05;5.50;;;15.60;99.90;;;;;;4954698;28;20034;-62
2021/05/12 07:39:44;;;;;;;13.95;6.20;;;15.60;99.90;;;;;;4954416;28;20033;-62
2021/05/12 07:42:12;;;;;;;8.95;4.60;;;15.70;99.90;;;;;;4963222;28;20449;-63
2021/05/12 07:44:38;;;;;;;13.73;4.60;;;15.70;99.90;;;;;;4950839;29;20430;-62
2021/05/12 07:47:03;;;;;;;9.43;4.75;;;15.90;99.90;;;;;;4954780;28;20065;-65
2021/05/12 07:49:29;;;;;;;7.35;4.07;;;16.10;99.90;;;;;;4969040;28;20070;-67
2021/05/12 07:51:56;;;;;;;11.60;4.38;;;16.20;99.90;;;;;;4969756;28;20125;-61
2021/05/12 07:54:22;;;;;;;7.18;3.85;;;16.40;99.90;;;;;;4971198;28;20034;-63
2021/05/12 07:56:48;;;;;;;6.30;3.67;;;16.80;99.90;;;;;;4970595;28;20389;-64
2021/05/12 07:59:15;;;;;;;5.55;3.40;;;17.00;99.90;;;;;;4971364;28;20027;-63
2021/05/12 08:01:44;;;;;;;14.35;3.00;;;17.00;99.90;;;;;;4971793;28;20043;-60
2021/05/12 08:04:10;;;;;;;11.48;3.55;;;17.20;99.90;;;;;;4970634;28;20023;-58
2021/05/12 08:06:35;;;;;;;12.45;3.17;;;17.50;99.90;;;;;;4952949;28;20068;-63
2021/05/12 08:09:02;;;;;;;8.73;3.78;;;18.00;99.90;;;;;;4970797;28;20492;-63
2021/05/12 08:11:28;;;;;;;6.93;2.83;;;18.00;99.30;;;;;;4955250;28;20105;-59
2021/05/12 08:13:54;;;;;;;7.68;2.25;;;17.90;98.80;;;;;;4969381;28;20556;-60
2021/05/12 08:16:20;;;;;;;5.93;2.63;;;18.10;98.80;;;;;;4945087;28;20024;-69
2021/05/12 08:18:46;;;;;;;5.25;2.35;;;18.00;98.80;;;;;;4963889;28;20144;-68
2021/05/12 08:21:12;;;;;;;5.43;2.35;;;18.00;98.40;;;;;;4950720;28;20026;-62
2021/05/12 08:23:38;;;;;;;11.35;2.75;;;17.80;98.30;;;;;;4966590;28;20061;-59
2021/05/12 08:26:04;;;;;;;8.13;1.90;;;17.70;97.70;;;;;;4950748;29;20031;-58
2021/05/12 08:28:30;;;;;;;5.50;2.03;;;17.80;97.90;;;;;;4958239;28;20333;-62
2021/05/12 08:30:57;;;;;;;10.75;2.40;;;17.90;97.40;;;;;;4970497;28;20035;-64
2021/05/12 08:33:23;;;;;;;11.48;2.80;;;17.80;97.60;;;;;;4971686;28;20031;-62
2021/05/12 08:35:49;;;;;;;5.18;2.45;;;17.40;97.60;;;;;;4969544;28;20399;-69
2021/05/12 08:38:20;;;;;;;8.77;2.00;;;17.20;97.80;;;;;;4953225;28;20145;-60
2021/05/12 08:40:47;;;;;;;7.43;2.50;;;17.10;98.40;;;;;;4951583;28;20610;-67
2021/05/12 08:43:15;;;;;;;5.35;2.45;;;17.10;97.90;;;;;;4962859;28;20067;-61
2021/05/12 08:45:45;;;;;;;5.18;2.15;;;17.00;98.60;;;;;;4934576;29;20031;-62
2021/05/12 08:48:15;;;;;;;8.10;2.30;;;17.10;98.60;;;;;;4948486;28;20038;-61
2021/05/12 08:50:42;;;;;;;11.90;2.80;;;17.10;98.70;;;;;;4971077;28;20037;-62
2021/05/12 08:53:08;;;;;;;5.65;2.10;;;17.10;98.90;;;;;;4970127;28;20026;-62
2021/05/12 08:55:34;;;;;;;4.68;2.58;;;17.10;98.20;;;;;;4953221;28;20063;-62
2021/05/12 08:58:00;;;;;;;6.10;2.33;;;17.10;98.20;;;;;;4970029;28;20031;-61
2021/05/12 09:00:27;;;;;;;8.75;2.50;;;17.20;98.20;;;;;;4970621;28;20466;-60
2021/05/12 09:02:53;;;;;;;5.38;1.98;;;17.40;97.90;;;;;;4952883;28;20054;-61
2021/05/12 09:05:19;;;;;;;3.55;1.40;;;17.40;97.30;;;;;;4952885;28;20042;-61
2021/05/12 09:07:46;;;;;;;6.18;1.80;;;17.90;99.90;;;;;;4970460;28;20564;-70
2021/05/12 09:10:13;;;;;;;4.35;1.25;;;18.30;98.20;;;;;;4953704;28;20075;-59
2021/05/12 09:12:49;;;;;;;5.28;2.40;;;18.40;98.20;;;;;;4961062;28;20129;-62
2021/05/12 09:15:18;;;;;;;5.75;2.40;;;18.90;97.10;;;;;;4958762;28;20045;-60
2021/05/12 09:17:45;;;;;;;6.25;1.80;;;18.70;94.60;;;;;;4972694;28;20121;-62
2021/05/12 09:20:20;;;;;;;9.50;2.30;;;18.50;95.00;;;;;;4979628;28;20030;-63
2021/05/12 09:22:47;;;;;;;5.00;2.28;;;18.60;95.30;;;;;;4959253;28;20038;-70
2021/05/12 09:25:17;;;;;;;4.35;1.95;;;18.40;94.40;;;;;;4988594;28;20077;-61
2021/05/12 09:27:51;;;;;;;5.53;1.70;;;18.10;94.90;;;;;;4961973;28;20046;-61
2021/05/12 09:30:21;;;;;;;5.80;1.70;;;18.00;95.70;;;;;;4952314;28;20027;-63
2021/05/12 09:32:46;;;;;;;8.18;2.22;;;18.10;95.40;;;;;;4951081;28;20985;-70
2021/05/12 09:35:16;;;;;;;20.08;3.83;;;18.00;95.20;;;;;;4968457;28;20805;-60
2021/05/12 09:37:45;;;;;;;7.55;2.25;;;18.10;95.10;;;;;;4951347;28;20031;-61
2021/05/12 09:40:22;;;;;;;4.70;1.73;;;18.00;95.20;;;;;;4968035;28;20103;-62
2021/05/12 09:43:00;;;;;;;2.90;1.63;;;17.80;94.70;;;;;;4932193;29;20464;-61
2021/05/12 09:45:27;;;;;;;10.48;2.10;;;17.70;95.20;;;;;;4950231;29;20050;-61
2021/05/12 09:47:58;;;;;;;6.60;1.52;;;18.20;95.50;;;;;;4944271;28;20035;-61
2021/05/12 09:50:33;;;;;;;2.20;1.10;;;18.50;93.70;;;;;;4951374;28;20023;-44
2021/05/12 09:53:01;;;;;;;2.72;1.40;;;18.50;98.60;;;;;;4950982;28;20185;-46
2021/05/12 09:55:33;;;;;;;9.45;1.65;;;19.10;96.70;;;;;;4951790;28;20377;-45
2021/05/12 09:58:05;;;;;;;8.50;1.85;;;18.80;95.50;;;;;;4968798;28;20034;-46
2021/05/12 10:00:41;;;;;;;5.70;1.30;;;19.10;98.10;;;;;;4975189;28;20118;-62
2021/05/12 10:03:11;;;;;;;6.25;1.48;;;19.30;93.10;;;;;;4950462;28;20046;-62
2021/05/12 10:05:52;;;;;;;5.97;1.73;;;19.30;92.60;;;;;;4956652;28;20031;-64
2021/05/12 10:08:24;;;;;;;7.47;2.38;;;19.30;92.80;;;;;;4975781;28;20038;-61
2021/05/12 10:10:56;;;;;;;6.22;1.40;;;19.20;92.90;;;;;;4960249;28;20065;-62
2021/05/12 10:13:22;;;;;;;6.28;1.67;;;19.40;92.10;;;;;;4960606;28;20456;-64
2021/05/12 10:15:48;;;;;;;4.55;1.20;;;19.70;91.70;;;;;;4960724;28;20477;-61
2021/05/12 10:18:15;;;;;;;8.25;1.83;;;19.90;91.90;;;;;;4960562;28;20046;-62
2021/05/12 10:20:42;;;;;;;4.30;1.67;;;19.70;90.60;;;;;;4959623;28;20106;-63
2021/05/12 10:23:08;;;;;;;6.30;1.65;;;19.80;90.10;;;;;;4959867;28;20026;-66
2021/05/12 10:25:37;;;;;;;11.20;1.95;;;19.70;89.30;;;;;;4960661;28;20069;-62
2021/05/12 10:28:03;;;;;;;4.15;1.63;;;19.20;89.00;;;;;;4958118;28;20126;-62
2021/05/12 10:30:29;;;;;;;3.03;1.17;;;19.30;90.20;;;;;;4959173;28;20483;-62
2021/05/12 10:32:59;;;;;;;5.13;1.13;;;19.80;89.50;;;;;;4976603;28;20035;-62
2021/05/12 10:35:38;;;;;;;4.18;1.30;;;20.00;85.70;;;;;;4960726;28;20026;-63
2021/05/12 10:38:04;;;;;;;5.18;1.30;;;20.10;89.30;;;;;;4976980;28;20041;-61
2021/05/12 10:40:39;;;;;;;5.82;1.90;;;19.90;87.40;;;;;;4958797;28;20084;-63
2021/05/12 10:48:27;;;;;;;3.08;1.40;;;20.60;82.10;;;;;;4977551;28;20140;-66
2021/05/12 10:50:52;;;;;;;3.38;1.27;;;21.00;82.00;;;;;;4956317;28;20508;-66
2021/05/12 10:53:22;;;;;;;2.65;0.90;;;21.20;79.30;;;;;;4953037;28;20106;-61
2021/05/12 10:56:00;;;;;;;6.22;1.42;;;21.10;77.10;;;;;;4950463;28;20038;-62
2021/05/12 10:58:56;;;;;;;4.60;1.15;;;21.60;82.60;;;;;;4968156;28;20450;-61
2021/05/12 11:01:23;;;;;;;4.93;1.42;;;21.50;77.30;;;;;;4967185;28;20154;-63
2021/05/12 11:03:54;;;;;;;6.78;1.30;;;21.40;78.40;;;;;;4965290;28;21003;-61
2021/05/12 11:06:25;;;;;;;5.47;1.17;;;21.20;78.90;;;;;;4968184;28;20410;-61
2021/05/12 11:09:09;;;;;;;1.98;0.98;;;21.10;78.50;;;;;;4961466;28;20141;-62
2021/05/12 11:11:57;;;;;;;7.20;2.15;;;19.90;77.00;;;;;;4967480;28;20049;-64
2021/05/12 11:14:28;;;;;;;3.33;1.40;;;19.30;80.70;;;;;;4967744;28;20085;-63
2021/05/12 11:17:22;;;;;;;5.03;2.08;;;18.90;83.20;;;;;;4946784;28;20046;-65
2021/05/12 11:19:57;;;;;;;4.57;1.13;;;19.30;83.90;;;;;;4948609;28;20035;-69
2021/05/12 11:25:12;;;;;;;6.18;1.33;;;19.10;84.70;;;;;;4964966;28;20051;-64
2021/05/12 11:33:26;;;;;;;6.10;1.60;;;19.00;96.00;;;;;;4967961;28;20115;-58
2021/05/12 11:38:43;;;;;;;12.38;1.65;;;19.30;96.00;;;;;;4959747;28;20074;-59
2021/05/12 11:41:17;;;;;;;6.72;1.58;;;19.30;94.60;;;;;;4967457;28;20051;-59
2021/05/12 11:43:45;;;;;;;5.88;1.60;;;19.30;95.90;;;;;;4950819;28;20031;-59
2021/05/12 11:46:22;;;;;;;9.93;1.42;;;19.10;92.60;;;;;;4970956;28;20060;-60
2021/05/12 11:48:59;;;;;;;12.57;2.53;;;19.10;97.10;;;;;;4951212;29;20055;-67
2021/05/12 11:51:38;;;;;;;5.05;1.83;;;19.10;95.50;;;;;;4965695;28;20044;-58
2021/05/12 11:54:16;;;;;;;4.93;2.47;;;19.30;97.50;;;;;;4970083;28;20058;-59
2021/05/12 11:56:45;;;;;;;5.20;1.50;;;19.40;96.70;;;;;;4954307;28;20046;-59
2021/05/12 11:59:23;;;;;;;4.85;1.80;;;19.40;92.60;;;;;;4953744;28;20086;-58
2021/05/12 12:01:56;;;;;;;5.65;1.33;;;19.20;95.30;;;;;;4955675;28;20390;-59
2021/05/12 12:04:30;;;;;;;5.63;1.38;;;19.10;95.10;;;;;;4973473;28;20030;-62
2021/05/12 12:06:57;;;;;;;4.00;1.70;;;19.10;96.90;;;;;;4955596;28;20039;-58
2021/05/12 12:09:22;;;;;;;6.32;1.48;;;18.80;94.00;;;;;;4956197;28;20027;-58
2021/05/12 12:11:50;;;;;;;8.90;1.55;;;18.50;96.50;;;;;;4972254;28;20029;-61
2021/05/12 12:14:16;;;;;;;3.40;1.60;;;18.40;92.30;;;;;;4973276;28;20038;-61
2021/05/12 12:16:46;;;;;;;3.83;1.30;;;18.00;92.70;;;;;;4955425;28;20027;-62
2021/05/12 12:19:15;;;;;;;7.07;1.60;;;17.90;93.40;;;;;;4973115;28;20031;-60
2021/05/12 12:21:43;;;;;;;5.05;1.25;;;17.60;93.30;;;;;;4972686;28;20027;-60
2021/05/12 12:24:15;;;;;;;3.25;1.17;;;17.70;93.40;;;;;;4954176;28;20460;-60
2021/05/12 12:26:44;;;;;;;5.20;1.77;;;17.70;94.30;;;;;;4972812;28;20031;-60
2021/05/12 12:29:10;;;;;;;5.00;1.20;;;17.60;94.20;;;;;;4946549;28;20027;-62
2021/05/12 12:31:45;;;;;;;4.53;1.33;;;17.40;94.00;;;;;;4943368;28;20126;-61
2021/05/12 12:34:23;;;;;;;3.50;1.40;;;17.30;94.10;;;;;;4957501;28;20035;-63
2021/05/12 12:37:06;;;;;;;2.60;1.10;;;17.20;94.10;;;;;;4950171;29;20564;-67
2021/05/12 12:40:02;;;;;;;3.95;1.23;;;17.40;94.40;;;;;;4934481;29;20421;-61
2021/05/12 12:42:32;;;;;;;3.88;1.02;;;17.30;94.10;;;;;;4957526;28;20062;-47
2021/05/12 12:44:59;;;;;;;4.15;1.23;;;17.20;94.10;;;;;;4958490;28;20043;-62
2021/05/12 12:47:26;;;;;;;3.08;1.20;;;17.20;94.10;;;;;;4958209;28;20063;-60
2021/05/12 12:49:57;;;;;;;3.03;1.05;;;17.10;94.10;;;;;;4955183;28;20039;-61
2021/05/12 12:52:37;;;;;;;7.57;1.52;;;17.10;95.30;;;;;;4952919;28;20051;-60
2021/05/12 12:55:17;;;;;;;3.35;1.70;;;17.10;95.60;;;;;;4968935;28;20081;-62
2021/05/12 12:57:56;;;;;;;5.63;1.42;;;17.10;95.80;;;;;;4969112;28;20107;-61
2021/05/12 13:00:27;;;;;;;5.63;1.23;;;17.20;96.40;;;;;;4968570;28;20054;-62
2021/05/12 13:03:08;;;;;;;7.40;1.60;;;17.00;97.20;;;;;;4968997;28;20094;-62
2021/05/12 13:05:39;;;;;;;4.47;1.02;;;17.00;96.60;;;;;;4953686;28;20101;-61